Nearby METAR Reports

 

KSJC - San Jose, California, USA
Distance from station: NE 9mi, 14km
Updated: Tue, 09-Aug-2022 5:53am PDT
Overcast
Overcast
 Wind from NW
Wind: NW 7 mph , 11 km/h
Temperature: 64°F , 18°C
Dew Point: 55°F , 13°C
Humidity: 73%
Barometer: 29.99 inHg , 1015.6 hPa
Clouds: Overcast
Visibility: 10 miles , 16 km
Cloud details: Overcast 1900 ft
2022/08/09 12:53 KSJC 091253Z 32006KT 10SM OVC019 18/13 A2999 RMK AO2 SLP153 T01780133
KRHV - San Jose/Reid, California, USA
Distance from station: ENE 12mi, 19km
Updated: Mon, 08-Aug-2022 9:47pm PDT
NOT Current
Few Clouds
Few Clouds
 Wind from NW
Wind: NW 6 mph , 9 km/h
Temperature: 66°F , 19°C
Dew Point: 57°F , 14°C
Humidity: 73%
Barometer: 29.99 inHg , 1015.6 hPa
Clouds: Few Clouds
Visibility: 10 miles , 16 km
Cloud details: Few Clouds 6000 ft
2022/08/09 04:47 KRHV 090447Z 31005KT 10SM FEW060 19/14 A2999 RMK LAST
 
KPAO - Palo Alto, California, USA
Distance from station: NNW 14mi, 23km
Updated: Mon, 08-Aug-2022 8:47pm PDT
NOT Current
Clear
Clear
 Wind from WNW
Wind: WNW 9 mph , 15 km/h
Temperature: 64°F , 18°C
Dew Point: 55°F , 13°C
Humidity: 73%
Barometer: 29.98 inHg , 1015.2 hPa
Clouds: Clear
Visibility: 10 miles , 16 km
2022/08/09 03:47 KPAO 090347Z 29008KT 10SM SKC 18/13 A2998 RMK LAST
KSQL - San Carlos Airpo, California, USA
Distance from station: NW 21mi, 34km
Updated: Tue, 09-Aug-2022 6:35am PDT
Overcast
Overcast
 Wind from calm
Wind: Calm
Temperature: 64°F , 18°C
Dew Point: 57°F , 14°C
Humidity: 78%
Barometer: 30.01 inHg , 1016.3 hPa
Clouds: Overcast
Visibility: 10 miles , 16 km
Cloud details: Overcast 1900 ft
2022/08/09 13:35 KSQL 091335Z AUTO 00000KT 10SM OVC019 18/14 A3001 RMK AO2
 
KE16 - San Martin, California, USA
Distance from station: ESE 27mi, 43km
Updated: Tue, 09-Aug-2022 6:35am PDT
Mostly cloudy
Mostly cloudy
 Wind from NW
Wind: NW 9 mph , 15 km/h
Temperature: 63°F , 17°C
Dew Point: 55°F , 13°C
Humidity: 77%
Barometer: 30.01 inHg , 1016.3 hPa
Clouds: Mostly cloudy
Visibility: 10 miles , 16 km
Cloud details: Mostly cloudy 1500 ft
2022/08/09 13:35 KE16 091335Z AUTO 32008KT 10SM BKN015 17/13 A3001 RMK AO2 PWINO PNO
KWVI - Watsonville, California, USA
Distance from station: SSE 27mi, 44km
Updated: Tue, 09-Aug-2022 6:40am PDT
Mist, Overcast
Mist, Overcast
 Wind from calm
Wind: Calm
Temperature: 55°F , 13°C
Dew Point: 55°F , 13°C
Humidity: 100%
Barometer: 30.00 inHg , 1015.9 hPa
Summary: Mist
Clouds: Overcast
Visibility: 1 1/2 miles , 2.4 km
Cloud details: Overcast 300 ft
2022/08/09 13:40 KWVI 091340Z AUTO 00000KT 1 1/2SM BR OVC003 13/13 A3000 RMK AO2 VIS 1/2V5 T01280128
 
KHWD - Hayward, California, USA
Distance from station: N 28mi, 44km
Updated: Tue, 09-Aug-2022 5:54am PDT
Overcast
Overcast
 Wind from W
Wind: W 8 mph , 13 km/h
Temperature: 63°F , 17°C
Dew Point: 57°F , 14°C
Humidity: 83%
Barometer: 29.98 inHg , 1015.2 hPa
Clouds: Overcast
Visibility: 10 miles , 16 km
Cloud details: Overcast 1600 ft
2022/08/09 12:54 KHWD 091254Z 27007KT 10SM OVC016 17/14 A2998 RMK AO2 SLP160 T01720139
KSFO - San Francisco, California, USA
Distance from station: NW 30mi, 49km
Updated: Tue, 09-Aug-2022 6:20am PDT
Overcast
Overcast
 Wind from W
Wind: W 9 mph , 15 km/h
Temperature: 64°F , 18°C
Dew Point: 55°F , 13°C
Humidity: 73%
Barometer: 29.99 inHg , 1015.6 hPa
Clouds: Overcast
Visibility: 10 miles , 16 km
Cloud details: Few Clouds 400 ft
Overcast 1500 ft
2022/08/09 13:20 KSFO 091320Z 27008KT 10SM FEW004 OVC015 18/13 A2999 RMK AO2 T01780133 $
 
KHAF - Half Moon Bay, California, USA
Distance from station: WNW 31mi, 50km
Updated: Tue, 09-Aug-2022 6:35am PDT
Overcast
Overcast
 Wind from NW
Wind: NW 6 mph , 9 km/h
Temperature: 63°F , 17°C
Dew Point: 61°F , 16°C
Humidity: 94%
Barometer: 30.00 inHg , 1015.9 hPa
Clouds: Overcast
Visibility: 9 miles , 14 km
Cloud details: Overcast 1400 ft
2022/08/09 13:35 KHAF 091335Z AUTO 32005KT 9SM OVC014 17/16 A3000 RMK AO2
KLVK - Livermore, California, USA
Distance from station: NNE 31mi, 51km
Updated: Tue, 09-Aug-2022 5:53am PDT
Mostly cloudy
Mostly cloudy
 Wind from SW
Wind: SW 6 mph , 9 km/h
Temperature: 61°F , 16°C
Dew Point: 55°F , 13°C
Humidity: 83%
Barometer: 29.98 inHg , 1015.2 hPa
Clouds: Mostly cloudy
Visibility: 10 miles , 16 km
Cloud details: Mostly cloudy 1800 ft
2022/08/09 12:53 KLVK 091253Z AUTO 22005KT 10SM BKN018 16/13 A2998 RMK AO2 SLP146 T01610133
 
KOAK - Oakland, California, USA
Distance from station: NNW 33mi, 53km
Updated: Tue, 09-Aug-2022 5:53am PDT
Mostly cloudy
Mostly cloudy
 Wind from W
Wind: W 14 mph , 22 km/h
Temperature: 63°F , 17°C
Dew Point: 57°F , 14°C
Humidity: 83%
Barometer: 29.98 inHg , 1015.2 hPa
Clouds: Mostly cloudy
Visibility: 10 miles , 16 km
Cloud details: Few Clouds 800 ft
Mostly cloudy 1200 ft
2022/08/09 12:53 KOAK 091253Z 27012KT 10SM FEW008 BKN012 17/14 A2998 RMK AO2 SLP151 T01720139
KCVH - Hollister Muni, California, USA
Distance from station: SE 42mi, 68km
Updated: Tue, 09-Aug-2022 6:35am PDT
Mostly cloudy
Mostly cloudy
 Wind from calm
Wind: Calm
Temperature: 59°F , 15°C
Dew Point: 54°F , 12°C
Humidity: 82%
Barometer: 30.00 inHg , 1015.9 hPa
Clouds: Mostly cloudy
Visibility: 10 miles , 16 km
Cloud details: Mostly cloudy 1400 ft
2022/08/09 13:35 KCVH 091335Z AUTO 00000KT 10SM BKN014 15/12 A3000 RMK A01
 
KSNS - Salinas, California, USA
Distance from station: SSE 48mi, 77km
Updated: Tue, 09-Aug-2022 3:53am PDT
NOT Current
Clear
Clear
 Wind from WNW
Wind: WNW 7 mph , 11 km/h
Temperature: 63°F , 17°C
Dew Point: 55°F , 13°C
Humidity: 77%
Barometer: 29.97 inHg , 1014.9 hPa
Clouds: Clear
Visibility: 10 miles , 16 km
2022/08/09 10:53 KSNS 091053Z AUTO 30006KT 10SM CLR 17/13 A2997 RMK AO2 SLP157 T01720133 TSNO
KMRY - Monterey, California, USA
Distance from station: SSE 49mi, 78km
Updated: Tue, 09-Aug-2022 5:54am PDT
Mostly cloudy
Mostly cloudy
 Wind from SW
Wind: SW 7 mph , 11 km/h
Temperature: 63°F , 17°C
Dew Point: 55°F , 13°C
Humidity: 77%
Barometer: 30.00 inHg , 1015.9 hPa
Clouds: Mostly cloudy
Visibility: 10 miles , 16 km
Cloud details: Mostly cloudy 900 ft
2022/08/09 12:54 KMRY 091254Z 23006KT 10SM BKN009 17/13 A3000 RMK AO2 SLP168 T01670133
 
KCCR - Concord, California, USA
Distance from station: N 50mi, 81km
Updated: Tue, 09-Aug-2022 5:53am PDT
Clear
Clear
 Wind from SSW
Wind: SSW 9 mph , 15 km/h
Temperature: 61°F , 16°C
Dew Point: 55°F , 13°C
Humidity: 83%
Barometer: 29.96 inHg , 1014.6 hPa
Clouds: Clear
Visibility: 10 miles , 16 km
2022/08/09 12:53 KCCR 091253Z AUTO 20008KT 10SM CLR 16/13 A2996 RMK AO2 SLP131 T01610128